sensor_id;sensor_type;location;lat;lon;timestamp;P1;durP1;ratioP1;P2;durP2;ratioP2
56537;SDS011;42435;53.292;6.000;2023-02-28T00:00:22;3.63;;;1.63;;
56537;SDS011;42435;53.292;6.000;2023-02-28T00:02:48;5.15;;;2.03;;
56537;SDS011;42435;53.292;6.000;2023-02-28T00:05:15;10.55;;;2.30;;
56537;SDS011;42435;53.292;6.000;2023-02-28T00:07:44;7.88;;;2.03;;
56537;SDS011;42435;53.292;6.000;2023-02-28T00:10:11;10.88;;;2.10;;
56537;SDS011;42435;53.292;6.000;2023-02-28T00:12:38;6.53;;;2.55;;
56537;SDS011;42435;53.292;6.000;2023-02-28T00:15:05;5.85;;;2.10;;
56537;SDS011;42435;53.292;6.000;2023-02-28T00:17:31;6.57;;;2.25;;
56537;SDS011;42435;53.292;6.000;2023-02-28T00:19:57;8.35;;;2.40;;
56537;SDS011;42435;53.292;6.000;2023-02-28T00:22:34;6.13;;;1.95;;
56537;SDS011;42435;53.292;6.000;2023-02-28T00:25:01;6.93;;;2.10;;
56537;SDS011;42435;53.292;6.000;2023-02-28T00:27:26;5.53;;;2.00;;
56537;SDS011;42435;53.292;6.000;2023-02-28T00:29:52;8.23;;;2.20;;
56537;SDS011;42435;53.292;6.000;2023-02-28T00:32:19;6.43;;;2.42;;
56537;SDS011;42435;53.292;6.000;2023-02-28T00:34:44;6.65;;;1.92;;
56537;SDS011;42435;53.292;6.000;2023-02-28T00:37:10;6.07;;;2.10;;
56537;SDS011;42435;53.292;6.000;2023-02-28T00:39:37;7.25;;;2.17;;
56537;SDS011;42435;53.292;6.000;2023-02-28T00:42:03;6.28;;;2.30;;
56537;SDS011;42435;53.292;6.000;2023-02-28T00:44:29;7.13;;;2.25;;
56537;SDS011;42435;53.292;6.000;2023-02-28T00:46:55;8.45;;;2.53;;
56537;SDS011;42435;53.292;6.000;2023-02-28T00:49:21;5.47;;;2.33;;
56537;SDS011;42435;53.292;6.000;2023-02-28T00:51:48;7.35;;;2.40;;
56537;SDS011;42435;53.292;6.000;2023-02-28T00:54:14;4.28;;;2.30;;
56537;SDS011;42435;53.292;6.000;2023-02-28T00:56:39;5.65;;;2.05;;
56537;SDS011;42435;53.292;6.000;2023-02-28T00:59:05;4.00;;;2.20;;
56537;SDS011;42435;53.292;6.000;2023-02-28T01:01:31;7.70;;;2.22;;
56537;SDS011;42435;53.292;6.000;2023-02-28T01:03:56;6.47;;;2.30;;
56537;SDS011;42435;53.292;6.000;2023-02-28T01:06:22;4.38;;;2.15;;
56537;SDS011;42435;53.292;6.000;2023-02-28T01:08:48;7.65;;;2.28;;
56537;SDS011;42435;53.292;6.000;2023-02-28T01:11:15;6.50;;;2.47;;
56537;SDS011;42435;53.292;6.000;2023-02-28T01:13:44;8.98;;;3.20;;
56537;SDS011;42435;53.292;6.000;2023-02-28T01:16:12;6.47;;;2.80;;
56537;SDS011;42435;53.292;6.000;2023-02-28T01:18:38;6.25;;;2.10;;
56537;SDS011;42435;53.292;6.000;2023-02-28T01:21:05;5.40;;;2.53;;
56537;SDS011;42435;53.292;6.000;2023-02-28T01:23:35;12.30;;;2.67;;
56537;SDS011;42435;53.292;6.000;2023-02-28T01:26:04;12.43;;;4.20;;
56537;SDS011;42435;53.292;6.000;2023-02-28T01:28:34;7.00;;;2.25;;
56537;SDS011;42435;53.292;6.000;2023-02-28T01:31:00;4.95;;;2.03;;
56537;SDS011;42435;53.292;6.000;2023-02-28T01:33:26;9.05;;;2.35;;
56537;SDS011;42435;53.292;6.000;2023-02-28T01:35:59;9.60;;;2.40;;
56537;SDS011;42435;53.292;6.000;2023-02-28T01:38:25;8.73;;;2.78;;
56537;SDS011;42435;53.292;6.000;2023-02-28T01:40:51;3.35;;;2.25;;
56537;SDS011;42435;53.292;6.000;2023-02-28T01:43:21;5.00;;;2.03;;
56537;SDS011;42435;53.292;6.000;2023-02-28T01:45:49;7.93;;;2.20;;
56537;SDS011;42435;53.292;6.000;2023-02-28T01:48:15;4.38;;;2.20;;
56537;SDS011;42435;53.292;6.000;2023-02-28T01:50:41;4.43;;;2.13;;
56537;SDS011;42435;53.292;6.000;2023-02-28T01:53:10;4.90;;;2.00;;
56537;SDS011;42435;53.292;6.000;2023-02-28T01:55:41;4.55;;;2.03;;
56537;SDS011;42435;53.292;6.000;2023-02-28T01:58:09;4.75;;;2.40;;
56537;SDS011;42435;53.292;6.000;2023-02-28T02:00:36;8.65;;;2.63;;
56537;SDS011;42435;53.292;6.000;2023-02-28T02:03:08;5.35;;;2.10;;
56537;SDS011;42435;53.292;6.000;2023-02-28T02:05:37;7.20;;;2.58;;
56537;SDS011;42435;53.292;6.000;2023-02-28T02:08:05;7.28;;;2.67;;
56537;SDS011;42435;53.292;6.000;2023-02-28T02:10:43;5.47;;;1.92;;
56537;SDS011;42435;53.292;6.000;2023-02-28T02:19:15;4.32;;;1.85;;
56537;SDS011;42435;53.292;6.000;2023-02-28T02:38:29;5.43;;;2.20;;
56537;SDS011;42435;53.292;6.000;2023-02-28T02:41:18;5.25;;;2.42;;
56537;SDS011;42435;53.292;6.000;2023-02-28T02:46:49;9.88;;;2.97;;
56537;SDS011;42435;53.292;6.000;2023-02-28T02:49:12;6.75;;;2.10;;
56537;SDS011;42435;53.292;6.000;2023-02-28T02:51:46;5.28;;;1.92;;
56537;SDS011;42435;53.292;6.000;2023-02-28T02:54:17;6.65;;;1.98;;
56537;SDS011;42435;53.292;6.000;2023-02-28T02:56:53;3.35;;;1.70;;
56537;SDS011;42435;53.292;6.000;2023-02-28T02:59:22;4.28;;;2.17;;
56537;SDS011;42435;53.292;6.000;2023-02-28T03:01:51;6.57;;;2.30;;
56537;SDS011;42435;53.292;6.000;2023-02-28T03:04:21;4.75;;;2.22;;
56537;SDS011;42435;53.292;6.000;2023-02-28T03:06:50;3.63;;;1.85;;
56537;SDS011;42435;53.292;6.000;2023-02-28T03:09:20;5.32;;;2.15;;
56537;SDS011;42435;53.292;6.000;2023-02-28T03:11:46;5.10;;;1.88;;
56537;SDS011;42435;53.292;6.000;2023-02-28T03:14:17;4.13;;;2.15;;
56537;SDS011;42435;53.292;6.000;2023-02-28T03:16:59;4.97;;;1.95;;
56537;SDS011;42435;53.292;6.000;2023-02-28T03:19:47;5.00;;;2.40;;
56537;SDS011;42435;53.292;6.000;2023-02-28T03:22:40;5.72;;;2.35;;
56537;SDS011;42435;53.292;6.000;2023-02-28T03:28:00;3.45;;;1.90;;
56537;SDS011;42435;53.292;6.000;2023-02-28T03:30:49;3.35;;;1.80;;
56537;SDS011;42435;53.292;6.000;2023-02-28T03:33:34;5.10;;;2.25;;
56537;SDS011;42435;53.292;6.000;2023-02-28T03:36:05;5.00;;;2.08;;
56537;SDS011;42435;53.292;6.000;2023-02-28T03:38:37;4.63;;;2.45;;
56537;SDS011;42435;53.292;6.000;2023-02-28T03:43:40;6.45;;;2.28;;
56537;SDS011;42435;53.292;6.000;2023-02-28T03:46:10;5.03;;;2.20;;
56537;SDS011;42435;53.292;6.000;2023-02-28T03:48:48;7.35;;;2.60;;
56537;SDS011;42435;53.292;6.000;2023-02-28T03:51:21;6.13;;;2.20;;
56537;SDS011;42435;53.292;6.000;2023-02-28T03:53:53;4.45;;;1.77;;
56537;SDS011;42435;53.292;6.000;2023-02-28T03:56:32;4.40;;;2.20;;
56537;SDS011;42435;53.292;6.000;2023-02-28T03:59:22;3.75;;;1.70;;
56537;SDS011;42435;53.292;6.000;2023-02-28T04:02:09;5.80;;;1.17;;
56537;SDS011;42435;53.292;6.000;2023-02-28T04:04:35;5.40;;;1.40;;
56537;SDS011;42435;53.292;6.000;2023-02-28T04:07:06;5.03;;;1.38;;
56537;SDS011;42435;53.292;6.000;2023-02-28T04:09:33;3.88;;;1.50;;
56537;SDS011;42435;53.292;6.000;2023-02-28T04:11:59;7.82;;;2.60;;
56537;SDS011;42435;53.292;6.000;2023-02-28T04:14:25;6.50;;;1.52;;
56537;SDS011;42435;53.292;6.000;2023-02-28T04:16:51;7.30;;;2.13;;
56537;SDS011;42435;53.292;6.000;2023-02-28T04:19:17;7.82;;;1.40;;
56537;SDS011;42435;53.292;6.000;2023-02-28T04:21:47;8.70;;;1.60;;
56537;SDS011;42435;53.292;6.000;2023-02-28T04:24:19;6.97;;;1.75;;
56537;SDS011;42435;53.292;6.000;2023-02-28T04:26:50;7.20;;;1.65;;
56537;SDS011;42435;53.292;6.000;2023-02-28T04:29:31;7.75;;;1.70;;
56537;SDS011;42435;53.292;6.000;2023-02-28T04:31:58;6.70;;;1.67;;
56537;SDS011;42435;53.292;6.000;2023-02-28T04:34:25;5.40;;;1.77;;
56537;SDS011;42435;53.292;6.000;2023-02-28T04:36:53;7.18;;;1.70;;
56537;SDS011;42435;53.292;6.000;2023-02-28T04:39:20;4.63;;;1.48;;
56537;SDS011;42435;53.292;6.000;2023-02-28T04:41:46;5.38;;;1.40;;
56537;SDS011;42435;53.292;6.000;2023-02-28T04:44:12;5.80;;;1.75;;
56537;SDS011;42435;53.292;6.000;2023-02-28T04:46:39;6.97;;;1.77;;
56537;SDS011;42435;53.292;6.000;2023-02-28T04:49:05;10.27;;;1.67;;
56537;SDS011;42435;53.292;6.000;2023-02-28T04:51:31;5.00;;;1.73;;
56537;SDS011;42435;53.292;6.000;2023-02-28T04:53:57;10.50;;;1.95;;
56537;SDS011;42435;53.292;6.000;2023-02-28T04:56:22;5.50;;;1.85;;
56537;SDS011;42435;53.292;6.000;2023-02-28T04:58:48;9.15;;;2.00;;
56537;SDS011;42435;53.292;6.000;2023-02-28T05:03:46;9.95;;;2.10;;
56537;SDS011;42435;53.292;6.000;2023-02-28T05:06:13;10.90;;;2.05;;
56537;SDS011;42435;53.292;6.000;2023-02-28T05:08:39;7.72;;;3.10;;
56537;SDS011;42435;53.292;6.000;2023-02-28T05:11:06;7.22;;;2.25;;
56537;SDS011;42435;53.292;6.000;2023-02-28T05:13:36;8.23;;;3.08;;
56537;SDS011;42435;53.292;6.000;2023-02-28T05:16:02;10.48;;;2.17;;
56537;SDS011;42435;53.292;6.000;2023-02-28T05:18:28;8.68;;;2.25;;
56537;SDS011;42435;53.292;6.000;2023-02-28T05:20:53;7.93;;;3.25;;
56537;SDS011;42435;53.292;6.000;2023-02-28T05:23:19;11.75;;;2.65;;
56537;SDS011;42435;53.292;6.000;2023-02-28T05:25:47;7.97;;;2.90;;
56537;SDS011;42435;53.292;6.000;2023-02-28T05:28:13;5.43;;;2.35;;
56537;SDS011;42435;53.292;6.000;2023-02-28T05:30:39;6.57;;;2.10;;
56537;SDS011;42435;53.292;6.000;2023-02-28T05:33:04;4.28;;;1.67;;
56537;SDS011;42435;53.292;6.000;2023-02-28T05:35:30;8.18;;;2.35;;
56537;SDS011;42435;53.292;6.000;2023-02-28T05:37:56;8.63;;;2.50;;
56537;SDS011;42435;53.292;6.000;2023-02-28T05:40:21;9.75;;;1.90;;
56537;SDS011;42435;53.292;6.000;2023-02-28T05:42:47;6.90;;;2.00;;
56537;SDS011;42435;53.292;6.000;2023-02-28T05:45:15;5.78;;;1.48;;
56537;SDS011;42435;53.292;6.000;2023-02-28T05:47:42;4.85;;;1.60;;
56537;SDS011;42435;53.292;6.000;2023-02-28T05:50:07;6.05;;;1.48;;
56537;SDS011;42435;53.292;6.000;2023-02-28T05:52:35;4.68;;;1.75;;
56537;SDS011;42435;53.292;6.000;2023-02-28T05:55:01;8.27;;;1.50;;
56537;SDS011;42435;53.292;6.000;2023-02-28T05:57:26;9.85;;;1.90;;
56537;SDS011;42435;53.292;6.000;2023-02-28T05:59:52;6.78;;;2.38;;
56537;SDS011;42435;53.292;6.000;2023-02-28T06:02:17;7.05;;;2.60;;
56537;SDS011;42435;53.292;6.000;2023-02-28T06:04:43;14.20;;;4.25;;
56537;SDS011;42435;53.292;6.000;2023-02-28T06:07:09;10.25;;;5.32;;
56537;SDS011;42435;53.292;6.000;2023-02-28T06:09:35;8.45;;;4.40;;
56537;SDS011;42435;53.292;6.000;2023-02-28T06:12:02;8.70;;;4.43;;
56537;SDS011;42435;53.292;6.000;2023-02-28T06:14:30;7.05;;;3.30;;
56537;SDS011;42435;53.292;6.000;2023-02-28T06:16:57;5.50;;;3.67;;
56537;SDS011;42435;53.292;6.000;2023-02-28T06:19:23;8.50;;;5.50;;
56537;SDS011;42435;53.292;6.000;2023-02-28T06:21:50;8.23;;;6.63;;
56537;SDS011;42435;53.292;6.000;2023-02-28T06:24:18;10.05;;;7.70;;
56537;SDS011;42435;53.292;6.000;2023-02-28T06:26:44;10.23;;;7.85;;
56537;SDS011;42435;53.292;6.000;2023-02-28T06:29:10;11.60;;;8.85;;
56537;SDS011;42435;53.292;6.000;2023-02-28T06:31:36;13.15;;;8.20;;
56537;SDS011;42435;53.292;6.000;2023-02-28T06:34:03;9.50;;;7.75;;
56537;SDS011;42435;53.292;6.000;2023-02-28T06:36:29;8.05;;;6.72;;
56537;SDS011;42435;53.292;6.000;2023-02-28T06:38:55;9.43;;;7.18;;
56537;SDS011;42435;53.292;6.000;2023-02-28T06:41:24;10.15;;;7.45;;
56537;SDS011;42435;53.292;6.000;2023-02-28T06:43:50;9.10;;;7.53;;
56537;SDS011;42435;53.292;6.000;2023-02-28T06:46:16;12.63;;;8.50;;
56537;SDS011;42435;53.292;6.000;2023-02-28T06:48:43;9.18;;;7.72;;
56537;SDS011;42435;53.292;6.000;2023-02-28T06:51:10;13.27;;;9.85;;
56537;SDS011;42435;53.292;6.000;2023-02-28T06:53:39;11.32;;;8.70;;
56537;SDS011;42435;53.292;6.000;2023-02-28T06:56:08;8.60;;;6.20;;
56537;SDS011;42435;53.292;6.000;2023-02-28T06:58:36;8.02;;;6.40;;
56537;SDS011;42435;53.292;6.000;2023-02-28T07:01:04;7.57;;;6.28;;
56537;SDS011;42435;53.292;6.000;2023-02-28T07:03:30;9.45;;;7.40;;
56537;SDS011;42435;53.292;6.000;2023-02-28T07:05:56;10.80;;;7.00;;
56537;SDS011;42435;53.292;6.000;2023-02-28T07:08:22;9.45;;;7.30;;
56537;SDS011;42435;53.292;6.000;2023-02-28T07:10:55;9.45;;;7.50;;
56537;SDS011;42435;53.292;6.000;2023-02-28T07:13:21;9.52;;;6.85;;
56537;SDS011;42435;53.292;6.000;2023-02-28T07:15:58;10.63;;;7.70;;
56537;SDS011;42435;53.292;6.000;2023-02-28T07:18:25;11.43;;;7.90;;
56537;SDS011;42435;53.292;6.000;2023-02-28T07:20:51;12.48;;;8.60;;
56537;SDS011;42435;53.292;6.000;2023-02-28T07:23:18;12.23;;;7.90;;
56537;SDS011;42435;53.292;6.000;2023-02-28T07:25:44;8.48;;;7.25;;
56537;SDS011;42435;53.292;6.000;2023-02-28T07:28:10;9.18;;;6.65;;
56537;SDS011;42435;53.292;6.000;2023-02-28T07:30:37;10.70;;;6.43;;
56537;SDS011;42435;53.292;6.000;2023-02-28T07:33:03;10.00;;;7.00;;
56537;SDS011;42435;53.292;6.000;2023-02-28T07:35:29;10.85;;;7.72;;
56537;SDS011;42435;53.292;6.000;2023-02-28T07:37:56;10.23;;;7.60;;
56537;SDS011;42435;53.292;6.000;2023-02-28T07:40:23;12.35;;;8.90;;
56537;SDS011;42435;53.292;6.000;2023-02-28T07:42:49;18.77;;;11.80;;
56537;SDS011;42435;53.292;6.000;2023-02-28T07:45:15;35.67;;;18.80;;
56537;SDS011;42435;53.292;6.000;2023-02-28T07:47:42;24.75;;;15.38;;
56537;SDS011;42435;53.292;6.000;2023-02-28T07:50:09;18.05;;;11.73;;
56537;SDS011;42435;53.292;6.000;2023-02-28T07:52:36;16.92;;;11.95;;
56537;SDS011;42435;53.292;6.000;2023-02-28T07:55:03;18.98;;;12.02;;
56537;SDS011;42435;53.292;6.000;2023-02-28T07:57:33;17.52;;;10.85;;
56537;SDS011;42435;53.292;6.000;2023-02-28T07:59:59;16.50;;;11.73;;
56537;SDS011;42435;53.292;6.000;2023-02-28T08:02:24;17.02;;;11.15;;
56537;SDS011;42435;53.292;6.000;2023-02-28T08:04:50;16.42;;;10.45;;
56537;SDS011;42435;53.292;6.000;2023-02-28T08:07:16;18.70;;;11.98;;
56537;SDS011;42435;53.292;6.000;2023-02-28T08:09:43;19.90;;;11.55;;
56537;SDS011;42435;53.292;6.000;2023-02-28T08:12:09;16.90;;;11.57;;
56537;SDS011;42435;53.292;6.000;2023-02-28T08:14:36;20.95;;;12.20;;
56537;SDS011;42435;53.292;6.000;2023-02-28T08:17:02;20.55;;;12.05;;
56537;SDS011;42435;53.292;6.000;2023-02-28T08:19:28;21.25;;;12.45;;
56537;SDS011;42435;53.292;6.000;2023-02-28T08:21:54;21.58;;;13.85;;
56537;SDS011;42435;53.292;6.000;2023-02-28T08:24:20;21.88;;;13.30;;
56537;SDS011;42435;53.292;6.000;2023-02-28T08:26:46;20.88;;;14.02;;
56537;SDS011;42435;53.292;6.000;2023-02-28T08:29:12;18.98;;;12.90;;
56537;SDS011;42435;53.292;6.000;2023-02-28T08:31:37;19.15;;;12.65;;
56537;SDS011;42435;53.292;6.000;2023-02-28T08:34:10;21.60;;;13.65;;
56537;SDS011;42435;53.292;6.000;2023-02-28T08:36:38;19.83;;;12.13;;
56537;SDS011;42435;53.292;6.000;2023-02-28T08:39:04;20.50;;;12.90;;
56537;SDS011;42435;53.292;6.000;2023-02-28T08:41:31;19.02;;;11.65;;
56537;SDS011;42435;53.292;6.000;2023-02-28T08:43:57;20.30;;;12.02;;
56537;SDS011;42435;53.292;6.000;2023-02-28T08:46:22;20.83;;;13.32;;
56537;SDS011;42435;53.292;6.000;2023-02-28T08:48:51;17.27;;;11.48;;
56537;SDS011;42435;53.292;6.000;2023-02-28T08:51:18;18.77;;;12.15;;
56537;SDS011;42435;53.292;6.000;2023-02-28T08:53:50;17.73;;;11.75;;
56537;SDS011;42435;53.292;6.000;2023-02-28T08:56:17;23.90;;;15.23;;
56537;SDS011;42435;53.292;6.000;2023-02-28T08:58:43;20.40;;;13.63;;
56537;SDS011;42435;53.292;6.000;2023-02-28T09:01:10;20.38;;;13.60;;
56537;SDS011;42435;53.292;6.000;2023-02-28T09:03:47;19.65;;;12.68;;
56537;SDS011;42435;53.292;6.000;2023-02-28T09:06:14;16.90;;;12.68;;
56537;SDS011;42435;53.292;6.000;2023-02-28T09:08:44;16.05;;;11.40;;
56537;SDS011;42435;53.292;6.000;2023-02-28T09:11:10;15.70;;;10.60;;
56537;SDS011;42435;53.292;6.000;2023-02-28T09:13:36;19.48;;;11.48;;
56537;SDS011;42435;53.292;6.000;2023-02-28T09:16:03;18.50;;;11.13;;
56537;SDS011;42435;53.292;6.000;2023-02-28T09:18:31;17.58;;;11.63;;
56537;SDS011;42435;53.292;6.000;2023-02-28T09:21:02;19.58;;;12.95;;
56537;SDS011;42435;53.292;6.000;2023-02-28T09:23:38;18.13;;;12.25;;
56537;SDS011;42435;53.292;6.000;2023-02-28T09:26:04;21.30;;;13.70;;
56537;SDS011;42435;53.292;6.000;2023-02-28T09:28:31;20.10;;;14.15;;
56537;SDS011;42435;53.292;6.000;2023-02-28T09:30:59;18.02;;;13.32;;
56537;SDS011;42435;53.292;6.000;2023-02-28T09:33:25;19.60;;;12.98;;
56537;SDS011;42435;53.292;6.000;2023-02-28T09:35:51;16.38;;;10.88;;
56537;SDS011;42435;53.292;6.000;2023-02-28T09:38:24;17.80;;;13.55;;
56537;SDS011;42435;53.292;6.000;2023-02-28T09:40:51;19.63;;;14.30;;
56537;SDS011;42435;53.292;6.000;2023-02-28T09:43:20;17.45;;;11.15;;
56537;SDS011;42435;53.292;6.000;2023-02-28T09:45:49;16.17;;;12.68;;
56537;SDS011;42435;53.292;6.000;2023-02-28T09:48:31;19.60;;;12.88;;
56537;SDS011;42435;53.292;6.000;2023-02-28T09:51:05;15.90;;;12.18;;
56537;SDS011;42435;53.292;6.000;2023-02-28T09:53:55;19.45;;;13.35;;
56537;SDS011;42435;53.292;6.000;2023-02-28T09:56:25;19.42;;;12.30;;
56537;SDS011;42435;53.292;6.000;2023-02-28T10:02:21;16.38;;;10.98;;
56537;SDS011;42435;53.292;6.000;2023-02-28T10:10:30;14.77;;;10.88;;
56537;SDS011;42435;53.292;6.000;2023-02-28T10:13:01;12.80;;;9.77;;
56537;SDS011;42435;53.292;6.000;2023-02-28T10:15:30;18.90;;;12.55;;
56537;SDS011;42435;53.292;6.000;2023-02-28T10:18:02;15.68;;;10.60;;
56537;SDS011;42435;53.292;6.000;2023-02-28T10:20:35;14.23;;;10.93;;
56537;SDS011;42435;53.292;6.000;2023-02-28T10:23:09;13.63;;;9.45;;
56537;SDS011;42435;53.292;6.000;2023-02-28T10:25:42;16.05;;;10.23;;
56537;SDS011;42435;53.292;6.000;2023-02-28T10:28:14;23.77;;;14.98;;
56537;SDS011;42435;53.292;6.000;2023-02-28T10:30:45;20.40;;;14.73;;
56537;SDS011;42435;53.292;6.000;2023-02-28T10:35:45;21.17;;;16.25;;
56537;SDS011;42435;53.292;6.000;2023-02-28T10:38:16;19.10;;;14.65;;
56537;SDS011;42435;53.292;6.000;2023-02-28T10:41:00;17.67;;;11.32;;
56537;SDS011;42435;53.292;6.000;2023-02-28T10:43:33;12.68;;;9.85;;
56537;SDS011;42435;53.292;6.000;2023-02-28T10:51:13;14.05;;;9.30;;
56537;SDS011;42435;53.292;6.000;2023-02-28T10:56:17;15.68;;;9.45;;
56537;SDS011;42435;53.292;6.000;2023-02-28T10:58:57;14.15;;;8.85;;
56537;SDS011;42435;53.292;6.000;2023-02-28T11:03:58;14.32;;;8.90;;
56537;SDS011;42435;53.292;6.000;2023-02-28T11:06:30;14.18;;;9.55;;
56537;SDS011;42435;53.292;6.000;2023-02-28T11:08:58;13.50;;;9.48;;
56537;SDS011;42435;53.292;6.000;2023-02-28T11:11:29;15.00;;;9.60;;
56537;SDS011;42435;53.292;6.000;2023-02-28T11:14:06;17.70;;;9.85;;
56537;SDS011;42435;53.292;6.000;2023-02-28T11:16:44;13.73;;;8.90;;
56537;SDS011;42435;53.292;6.000;2023-02-28T11:19:16;12.90;;;8.32;;
56537;SDS011;42435;53.292;6.000;2023-02-28T11:21:57;11.40;;;7.75;;
56537;SDS011;42435;53.292;6.000;2023-02-28T11:24:29;12.60;;;8.10;;
56537;SDS011;42435;53.292;6.000;2023-02-28T11:26:59;12.93;;;8.05;;
56537;SDS011;42435;53.292;6.000;2023-02-28T11:29:26;11.15;;;7.47;;
56537;SDS011;42435;53.292;6.000;2023-02-28T11:34:38;10.18;;;7.18;;
56537;SDS011;42435;53.292;6.000;2023-02-28T11:37:05;10.25;;;7.22;;
56537;SDS011;42435;53.292;6.000;2023-02-28T11:39:42;11.35;;;6.78;;
56537;SDS011;42435;53.292;6.000;2023-02-28T11:47:35;13.52;;;5.93;;
56537;SDS011;42435;53.292;6.000;2023-02-28T11:52:58;8.20;;;6.00;;
56537;SDS011;42435;53.292;6.000;2023-02-28T12:08:57;7.72;;;5.25;;
56537;SDS011;42435;53.292;6.000;2023-02-28T12:28:26;6.45;;;4.32;;
56537;SDS011;42435;53.292;6.000;2023-02-28T12:30:58;7.05;;;5.05;;
56537;SDS011;42435;53.292;6.000;2023-02-28T12:33:32;5.60;;;4.00;;
56537;SDS011;42435;53.292;6.000;2023-02-28T12:36:01;6.82;;;4.57;;
56537;SDS011;42435;53.292;6.000;2023-02-28T12:38:36;5.88;;;4.78;;
56537;SDS011;42435;53.292;6.000;2023-02-28T12:41:13;8.38;;;4.60;;
56537;SDS011;42435;53.292;6.000;2023-02-28T12:44:02;7.85;;;4.90;;
56537;SDS011;42435;53.292;6.000;2023-02-28T12:46:34;6.72;;;4.85;;
56537;SDS011;42435;53.292;6.000;2023-02-28T12:49:08;7.22;;;5.03;;
56537;SDS011;42435;53.292;6.000;2023-02-28T12:51:39;7.70;;;4.88;;
56537;SDS011;42435;53.292;6.000;2023-02-28T12:54:25;6.53;;;5.00;;
56537;SDS011;42435;53.292;6.000;2023-02-28T12:57:09;7.78;;;4.95;;
56537;SDS011;42435;53.292;6.000;2023-02-28T12:59:59;7.00;;;5.30;;
56537;SDS011;42435;53.292;6.000;2023-02-28T13:11:02;6.65;;;4.78;;
56537;SDS011;42435;53.292;6.000;2023-02-28T13:13:29;8.57;;;5.55;;
56537;SDS011;42435;53.292;6.000;2023-02-28T13:15:57;8.15;;;5.60;;
56537;SDS011;42435;53.292;6.000;2023-02-28T13:18:27;7.18;;;5.97;;
56537;SDS011;42435;53.292;6.000;2023-02-28T13:20:56;7.53;;;5.72;;
56537;SDS011;42435;53.292;6.000;2023-02-28T13:23:36;9.00;;;5.60;;
56537;SDS011;42435;53.292;6.000;2023-02-28T13:26:02;7.72;;;5.60;;
56537;SDS011;42435;53.292;6.000;2023-02-28T13:31:18;6.50;;;5.05;;
56537;SDS011;42435;53.292;6.000;2023-02-28T13:36:27;6.28;;;5.35;;
56537;SDS011;42435;53.292;6.000;2023-02-28T13:39:00;7.20;;;5.38;;
56537;SDS011;42435;53.292;6.000;2023-02-28T13:46:28;6.78;;;5.15;;
56537;SDS011;42435;53.292;6.000;2023-02-28T13:48:55;7.18;;;5.88;;
56537;SDS011;42435;53.292;6.000;2023-02-28T13:54:28;8.45;;;5.45;;
56537;SDS011;42435;53.292;6.000;2023-02-28T14:05:15;8.00;;;5.25;;
56537;SDS011;42435;53.292;6.000;2023-02-28T14:18:05;6.75;;;4.68;;
56537;SDS011;42435;53.292;6.000;2023-02-28T14:20:55;6.82;;;4.60;;
56537;SDS011;42435;53.292;6.000;2023-02-28T14:26:57;7.70;;;4.47;;
56537;SDS011;42435;53.292;6.000;2023-02-28T14:32:28;6.07;;;4.15;;
56537;SDS011;42435;53.292;6.000;2023-02-28T14:37:37;6.13;;;4.25;;
56537;SDS011;42435;53.292;6.000;2023-02-28T14:40:11;5.88;;;4.22;;
56537;SDS011;42435;53.292;6.000;2023-02-28T14:45:18;6.03;;;4.32;;
56537;SDS011;42435;53.292;6.000;2023-02-28T14:47:45;4.93;;;4.22;;
56537;SDS011;42435;53.292;6.000;2023-02-28T14:50:19;5.03;;;4.25;;
56537;SDS011;42435;53.292;6.000;2023-02-28T14:55:14;7.35;;;5.05;;
56537;SDS011;42435;53.292;6.000;2023-02-28T14:57:50;6.53;;;4.30;;
56537;SDS011;42435;53.292;6.000;2023-02-28T15:02:58;7.07;;;4.90;;
56537;SDS011;42435;53.292;6.000;2023-02-28T15:05:27;8.63;;;5.07;;
56537;SDS011;42435;53.292;6.000;2023-02-28T15:08:12;6.25;;;4.65;;
56537;SDS011;42435;53.292;6.000;2023-02-28T15:10:40;8.77;;;5.63;;
56537;SDS011;42435;53.292;6.000;2023-02-28T15:13:12;7.22;;;4.90;;
56537;SDS011;42435;53.292;6.000;2023-02-28T15:15:56;5.60;;;4.65;;
56537;SDS011;42435;53.292;6.000;2023-02-28T15:18:44;7.20;;;5.47;;
56537;SDS011;42435;53.292;6.000;2023-02-28T15:21:29;7.47;;;4.95;;
56537;SDS011;42435;53.292;6.000;2023-02-28T15:26:37;6.43;;;5.32;;
56537;SDS011;42435;53.292;6.000;2023-02-28T15:29:07;6.47;;;4.80;;
56537;SDS011;42435;53.292;6.000;2023-02-28T15:31:40;6.05;;;4.35;;
56537;SDS011;42435;53.292;6.000;2023-02-28T15:34:19;8.23;;;5.13;;
56537;SDS011;42435;53.292;6.000;2023-02-28T15:36:46;6.88;;;4.80;;
56537;SDS011;42435;53.292;6.000;2023-02-28T15:39:25;6.97;;;5.05;;
56537;SDS011;42435;53.292;6.000;2023-02-28T15:42:09;5.15;;;4.47;;
56537;SDS011;42435;53.292;6.000;2023-02-28T15:44:36;6.78;;;4.50;;
56537;SDS011;42435;53.292;6.000;2023-02-28T15:49:38;6.32;;;4.97;;
56537;SDS011;42435;53.292;6.000;2023-02-28T15:52:09;6.40;;;4.93;;
56537;SDS011;42435;53.292;6.000;2023-02-28T15:54:40;6.40;;;5.63;;
56537;SDS011;42435;53.292;6.000;2023-02-28T15:57:10;7.47;;;5.35;;
56537;SDS011;42435;53.292;6.000;2023-02-28T15:59:44;7.47;;;5.55;;
56537;SDS011;42435;53.292;6.000;2023-02-28T16:02:18;6.72;;;6.05;;
56537;SDS011;42435;53.292;6.000;2023-02-28T16:05:02;7.72;;;6.47;;
56537;SDS011;42435;53.292;6.000;2023-02-28T16:07:45;10.07;;;6.72;;
56537;SDS011;42435;53.292;6.000;2023-02-28T16:10:13;7.05;;;5.70;;
56537;SDS011;42435;53.292;6.000;2023-02-28T16:12:39;7.88;;;6.05;;
56537;SDS011;42435;53.292;6.000;2023-02-28T16:15:17;13.23;;;8.93;;
56537;SDS011;42435;53.292;6.000;2023-02-28T16:17:45;9.23;;;7.22;;
56537;SDS011;42435;53.292;6.000;2023-02-28T16:20:15;11.20;;;7.32;;
56537;SDS011;42435;53.292;6.000;2023-02-28T16:22:49;13.45;;;7.60;;
56537;SDS011;42435;53.292;6.000;2023-02-28T16:25:16;13.77;;;7.05;;
56537;SDS011;42435;53.292;6.000;2023-02-28T16:27:45;11.15;;;8.82;;
56537;SDS011;42435;53.292;6.000;2023-02-28T16:30:20;9.35;;;8.20;;
56537;SDS011;42435;53.292;6.000;2023-02-28T16:32:48;9.23;;;7.05;;
56537;SDS011;42435;53.292;6.000;2023-02-28T16:35:15;9.60;;;7.15;;
56537;SDS011;42435;53.292;6.000;2023-02-28T16:37:42;10.02;;;6.55;;
56537;SDS011;42435;53.292;6.000;2023-02-28T16:40:13;9.38;;;6.82;;
56537;SDS011;42435;53.292;6.000;2023-02-28T16:42:40;11.85;;;7.18;;
56537;SDS011;42435;53.292;6.000;2023-02-28T16:45:06;9.90;;;7.05;;
56537;SDS011;42435;53.292;6.000;2023-02-28T16:47:36;9.48;;;7.25;;
56537;SDS011;42435;53.292;6.000;2023-02-28T16:50:04;9.65;;;7.40;;
56537;SDS011;42435;53.292;6.000;2023-02-28T16:52:40;8.02;;;6.80;;
56537;SDS011;42435;53.292;6.000;2023-02-28T16:55:06;9.93;;;7.20;;
56537;SDS011;42435;53.292;6.000;2023-02-28T16:57:32;11.68;;;7.20;;
56537;SDS011;42435;53.292;6.000;2023-02-28T16:59:58;9.85;;;7.32;;
56537;SDS011;42435;53.292;6.000;2023-02-28T17:02:23;10.82;;;7.63;;
56537;SDS011;42435;53.292;6.000;2023-02-28T17:04:49;11.98;;;7.75;;
56537;SDS011;42435;53.292;6.000;2023-02-28T17:07:15;9.98;;;7.32;;
56537;SDS011;42435;53.292;6.000;2023-02-28T17:09:41;11.27;;;7.95;;
56537;SDS011;42435;53.292;6.000;2023-02-28T17:12:08;10.15;;;7.40;;
56537;SDS011;42435;53.292;6.000;2023-02-28T17:14:34;11.98;;;7.40;;
56537;SDS011;42435;53.292;6.000;2023-02-28T17:17:00;16.92;;;10.10;;
56537;SDS011;42435;53.292;6.000;2023-02-28T17:19:25;22.05;;;14.38;;
56537;SDS011;42435;53.292;6.000;2023-02-28T17:21:51;19.52;;;13.00;;
56537;SDS011;42435;53.292;6.000;2023-02-28T17:24:17;20.38;;;13.45;;
56537;SDS011;42435;53.292;6.000;2023-02-28T17:26:43;20.73;;;15.23;;
56537;SDS011;42435;53.292;6.000;2023-02-28T17:29:16;19.05;;;13.15;;
56537;SDS011;42435;53.292;6.000;2023-02-28T17:31:44;18.48;;;12.32;;
56537;SDS011;42435;53.292;6.000;2023-02-28T17:34:10;16.17;;;10.85;;